sensor_id;sensor_type;location;lat;lon;timestamp;pressure;altitude;pressure_sealevel;temperature
69545;BMP180;56766;52.260;20.746;2024-01-30T00:00:04;102077.80;;;-0.40
69545;BMP180;56766;52.260;20.746;2024-01-30T00:02:32;102075.60;;;-0.40
69545;BMP180;56766;52.260;20.746;2024-01-30T00:05:00;102072.80;;;-0.40
69545;BMP180;56766;52.260;20.746;2024-01-30T00:07:26;102077.60;;;-0.42
69545;BMP180;56766;52.260;20.746;2024-01-30T00:09:52;102081.20;;;-0.48
69545;BMP180;56766;52.260;20.746;2024-01-30T00:12:18;102075.80;;;-0.50
69545;BMP180;56766;52.260;20.746;2024-01-30T00:14:45;102081.40;;;-0.50
69545;BMP180;56766;52.260;20.746;2024-01-30T00:17:11;102082.00;;;-0.50
69545;BMP180;56766;52.260;20.746;2024-01-30T00:19:37;102086.60;;;-0.50
69545;BMP180;56766;52.260;20.746;2024-01-30T00:22:03;102084.40;;;-0.50
69545;BMP180;56766;52.260;20.746;2024-01-30T00:24:29;102078.40;;;-0.50
69545;BMP180;56766;52.260;20.746;2024-01-30T00:26:55;102087.00;;;-0.52
69545;BMP180;56766;52.260;20.746;2024-01-30T00:29:21;102084.80;;;-0.60
69545;BMP180;56766;52.260;20.746;2024-01-30T00:31:48;102077.60;;;-0.60
69545;BMP180;56766;52.260;20.746;2024-01-30T00:34:14;102082.80;;;-0.60
69545;BMP180;56766;52.260;20.746;2024-01-30T00:36:40;102083.20;;;-0.60
69545;BMP180;56766;52.260;20.746;2024-01-30T00:39:06;102080.40;;;-0.70
69545;BMP180;56766;52.260;20.746;2024-01-30T00:41:35;102079.40;;;-0.70
69545;BMP180;56766;52.260;20.746;2024-01-30T00:44:01;102086.20;;;-0.70
69545;BMP180;56766;52.260;20.746;2024-01-30T00:46:26;102083.00;;;-0.78
69545;BMP180;56766;52.260;20.746;2024-01-30T00:48:52;102089.60;;;-0.80
69545;BMP180;56766;52.260;20.746;2024-01-30T00:51:18;102085.40;;;-0.80
69545;BMP180;56766;52.260;20.746;2024-01-30T00:53:45;102086.00;;;-0.90
69545;BMP180;56766;52.260;20.746;2024-01-30T00:56:11;102083.40;;;-0.90
69545;BMP180;56766;52.260;20.746;2024-01-30T00:58:37;102083.40;;;-0.90
69545;BMP180;56766;52.260;20.746;2024-01-30T01:01:04;102082.60;;;-1.00
69545;BMP180;56766;52.260;20.746;2024-01-30T01:03:30;102086.40;;;-1.00
69545;BMP180;56766;52.260;20.746;2024-01-30T01:05:56;102080.80;;;-1.00
69545;BMP180;56766;52.260;20.746;2024-01-30T01:08:22;102086.60;;;-1.08
69545;BMP180;56766;52.260;20.746;2024-01-30T01:10:48;102085.60;;;-1.10
69545;BMP180;56766;52.260;20.746;2024-01-30T01:13:14;102084.60;;;-1.10
69545;BMP180;56766;52.260;20.746;2024-01-30T01:15:40;102077.00;;;-1.20
69545;BMP180;56766;52.260;20.746;2024-01-30T01:18:06;102079.00;;;-1.20
69545;BMP180;56766;52.260;20.746;2024-01-30T01:20:32;102073.80;;;-1.20
69545;BMP180;56766;52.260;20.746;2024-01-30T01:22:58;102073.20;;;-1.30
69545;BMP180;56766;52.260;20.746;2024-01-30T01:25:24;102061.80;;;-1.30
69545;BMP180;56766;52.260;20.746;2024-01-30T01:27:50;102054.80;;;-1.30
69545;BMP180;56766;52.260;20.746;2024-01-30T01:30:19;102055.40;;;-1.40
69545;BMP180;56766;52.260;20.746;2024-01-30T01:32:49;102057.40;;;-1.40
69545;BMP180;56766;52.260;20.746;2024-01-30T01:35:23;102054.20;;;-1.40
69545;BMP180;56766;52.260;20.746;2024-01-30T01:37:51;102049.00;;;-1.40
69545;BMP180;56766;52.260;20.746;2024-01-30T01:40:27;102056.20;;;-1.44
69545;BMP180;56766;52.260;20.746;2024-01-30T01:42:55;102051.20;;;-1.46
69545;BMP180;56766;52.260;20.746;2024-01-30T01:45:22;102045.00;;;-1.50
69545;BMP180;56766;52.260;20.746;2024-01-30T01:47:51;102048.00;;;-1.50
69545;BMP180;56766;52.260;20.746;2024-01-30T01:50:20;102042.80;;;-1.50
69545;BMP180;56766;52.260;20.746;2024-01-30T01:52:48;102041.00;;;-1.50
69545;BMP180;56766;52.260;20.746;2024-01-30T01:55:16;102034.00;;;-1.50
69545;BMP180;56766;52.260;20.746;2024-01-30T01:57:45;102028.60;;;-1.50
69545;BMP180;56766;52.260;20.746;2024-01-30T02:00:12;102028.80;;;-1.50
69545;BMP180;56766;52.260;20.746;2024-01-30T02:02:39;102026.80;;;-1.50
69545;BMP180;56766;52.260;20.746;2024-01-30T02:05:06;102018.20;;;-1.50
69545;BMP180;56766;52.260;20.746;2024-01-30T02:07:32;102015.20;;;-1.50
69545;BMP180;56766;52.260;20.746;2024-01-30T02:09:58;102022.00;;;-1.50
69545;BMP180;56766;52.260;20.746;2024-01-30T02:12:24;102016.80;;;-1.50
69545;BMP180;56766;52.260;20.746;2024-01-30T02:14:50;102020.60;;;-1.50
69545;BMP180;56766;52.260;20.746;2024-01-30T02:17:16;102017.00;;;-1.50
69545;BMP180;56766;52.260;20.746;2024-01-30T02:19:43;102019.60;;;-1.50
69545;BMP180;56766;52.260;20.746;2024-01-30T02:22:09;102019.00;;;-1.50
69545;BMP180;56766;52.260;20.746;2024-01-30T02:24:35;102016.80;;;-1.50
69545;BMP180;56766;52.260;20.746;2024-01-30T02:27:02;102015.40;;;-1.50
69545;BMP180;56766;52.260;20.746;2024-01-30T02:29:28;102014.20;;;-1.50
69545;BMP180;56766;52.260;20.746;2024-01-30T02:31:54;102022.20;;;-1.50
69545;BMP180;56766;52.260;20.746;2024-01-30T02:34:20;102023.80;;;-1.50
69545;BMP180;56766;52.260;20.746;2024-01-30T02:36:46;102031.00;;;-1.50
69545;BMP180;56766;52.260;20.746;2024-01-30T02:39:12;102035.20;;;-1.52
69545;BMP180;56766;52.260;20.746;2024-01-30T02:41:38;102030.60;;;-1.60
69545;BMP180;56766;52.260;20.746;2024-01-30T02:44:04;102029.40;;;-1.60
69545;BMP180;56766;52.260;20.746;2024-01-30T02:46:30;102025.00;;;-1.60
69545;BMP180;56766;52.260;20.746;2024-01-30T02:48:57;102024.60;;;-1.60
69545;BMP180;56766;52.260;20.746;2024-01-30T02:51:23;102027.60;;;-1.60
69545;BMP180;56766;52.260;20.746;2024-01-30T02:53:49;102033.00;;;-1.64
69545;BMP180;56766;52.260;20.746;2024-01-30T02:56:15;102036.40;;;-1.66
69545;BMP180;56766;52.260;20.746;2024-01-30T02:58:41;102033.20;;;-1.70
69545;BMP180;56766;52.260;20.746;2024-01-30T03:01:07;102036.40;;;-1.62
69545;BMP180;56766;52.260;20.746;2024-01-30T03:03:33;102030.00;;;-1.60
69545;BMP180;56766;52.260;20.746;2024-01-30T03:06:02;102030.00;;;-1.60
69545;BMP180;56766;52.260;20.746;2024-01-30T03:08:28;102028.60;;;-1.60
69545;BMP180;56766;52.260;20.746;2024-01-30T03:10:54;102032.60;;;-1.60
69545;BMP180;56766;52.260;20.746;2024-01-30T03:13:21;102040.00;;;-1.60
69545;BMP180;56766;52.260;20.746;2024-01-30T03:15:49;102034.60;;;-1.60
69545;BMP180;56766;52.260;20.746;2024-01-30T03:18:15;102027.00;;;-1.60
69545;BMP180;56766;52.260;20.746;2024-01-30T03:20:41;102023.80;;;-1.60
69545;BMP180;56766;52.260;20.746;2024-01-30T03:23:07;102018.20;;;-1.60
69545;BMP180;56766;52.260;20.746;2024-01-30T03:25:33;102017.20;;;-1.60
69545;BMP180;56766;52.260;20.746;2024-01-30T03:27:59;102025.20;;;-1.60
69545;BMP180;56766;52.260;20.746;2024-01-30T03:30:25;102025.60;;;-1.60
69545;BMP180;56766;52.260;20.746;2024-01-30T03:32:51;102024.60;;;-1.60
69545;BMP180;56766;52.260;20.746;2024-01-30T03:35:19;102023.20;;;-1.60
69545;BMP180;56766;52.260;20.746;2024-01-30T03:37:45;102019.20;;;-1.60
69545;BMP180;56766;52.260;20.746;2024-01-30T03:40:12;102024.20;;;-1.60
69545;BMP180;56766;52.260;20.746;2024-01-30T03:42:38;102019.80;;;-1.60
69545;BMP180;56766;52.260;20.746;2024-01-30T03:45:05;102021.60;;;-1.60
69545;BMP180;56766;52.260;20.746;2024-01-30T03:47:31;102014.40;;;-1.60
69545;BMP180;56766;52.260;20.746;2024-01-30T03:49:57;102019.40;;;-1.60
69545;BMP180;56766;52.260;20.746;2024-01-30T03:52:23;102017.80;;;-1.60
69545;BMP180;56766;52.260;20.746;2024-01-30T03:54:49;102012.80;;;-1.60
69545;BMP180;56766;52.260;20.746;2024-01-30T03:57:15;102010.00;;;-1.60
69545;BMP180;56766;52.260;20.746;2024-01-30T03:59:45;102006.00;;;-1.60
69545;BMP180;56766;52.260;20.746;2024-01-30T04:02:11;102011.60;;;-1.60
69545;BMP180;56766;52.260;20.746;2024-01-30T04:04:37;102014.40;;;-1.60
69545;BMP180;56766;52.260;20.746;2024-01-30T04:07:03;102015.80;;;-1.60
69545;BMP180;56766;52.260;20.746;2024-01-30T04:09:29;102006.00;;;-1.60
69545;BMP180;56766;52.260;20.746;2024-01-30T04:11:55;102007.20;;;-1.60
69545;BMP180;56766;52.260;20.746;2024-01-30T04:14:21;102003.00;;;-1.60
69545;BMP180;56766;52.260;20.746;2024-01-30T04:16:47;102013.60;;;-1.60
69545;BMP180;56766;52.260;20.746;2024-01-30T04:19:13;102013.60;;;-1.62
69545;BMP180;56766;52.260;20.746;2024-01-30T04:21:39;102007.80;;;-1.60
69545;BMP180;56766;52.260;20.746;2024-01-30T04:24:05;102008.20;;;-1.62
69545;BMP180;56766;52.260;20.746;2024-01-30T04:26:31;102017.20;;;-1.60
69545;BMP180;56766;52.260;20.746;2024-01-30T04:28:57;102019.00;;;-1.60
69545;BMP180;56766;52.260;20.746;2024-01-30T04:31:23;102011.00;;;-1.60
69545;BMP180;56766;52.260;20.746;2024-01-30T04:33:49;102006.60;;;-1.60
69545;BMP180;56766;52.260;20.746;2024-01-30T04:36:15;102004.40;;;-1.62
69545;BMP180;56766;52.260;20.746;2024-01-30T04:38:41;102007.00;;;-1.60
69545;BMP180;56766;52.260;20.746;2024-01-30T04:41:07;102011.20;;;-1.60
69545;BMP180;56766;52.260;20.746;2024-01-30T04:43:33;102012.60;;;-1.60
69545;BMP180;56766;52.260;20.746;2024-01-30T04:45:59;102012.80;;;-1.60
69545;BMP180;56766;52.260;20.746;2024-01-30T04:48:25;102005.60;;;-1.60
69545;BMP180;56766;52.260;20.746;2024-01-30T04:50:51;102006.00;;;-1.60
69545;BMP180;56766;52.260;20.746;2024-01-30T04:53:17;102005.20;;;-1.52
69545;BMP180;56766;52.260;20.746;2024-01-30T04:55:43;102004.80;;;-1.50
69545;BMP180;56766;52.260;20.746;2024-01-30T04:58:09;102009.40;;;-1.50
69545;BMP180;56766;52.260;20.746;2024-01-30T05:00:35;102006.60;;;-1.50
69545;BMP180;56766;52.260;20.746;2024-01-30T05:03:01;102006.20;;;-1.50
69545;BMP180;56766;52.260;20.746;2024-01-30T05:05:27;102000.00;;;-1.50
69545;BMP180;56766;52.260;20.746;2024-01-30T05:07:53;102001.00;;;-1.50
69545;BMP180;56766;52.260;20.746;2024-01-30T05:10:19;101995.60;;;-1.50
69545;BMP180;56766;52.260;20.746;2024-01-30T05:12:45;102003.40;;;-1.50
69545;BMP180;56766;52.260;20.746;2024-01-30T05:15:11;102005.20;;;-1.50
69545;BMP180;56766;52.260;20.746;2024-01-30T05:17:37;102006.80;;;-1.50
69545;BMP180;56766;52.260;20.746;2024-01-30T05:20:03;102006.00;;;-1.50
69545;BMP180;56766;52.260;20.746;2024-01-30T05:22:30;102004.00;;;-1.50
69545;BMP180;56766;52.260;20.746;2024-01-30T05:24:56;101998.00;;;-1.50
69545;BMP180;56766;52.260;20.746;2024-01-30T05:27:22;102012.00;;;-1.50
69545;BMP180;56766;52.260;20.746;2024-01-30T05:29:48;102010.80;;;-1.50
69545;BMP180;56766;52.260;20.746;2024-01-30T05:32:15;102014.20;;;-1.50
69545;BMP180;56766;52.260;20.746;2024-01-30T05:34:41;102017.20;;;-1.50
69545;BMP180;56766;52.260;20.746;2024-01-30T05:37:07;102013.00;;;-1.50
69545;BMP180;56766;52.260;20.746;2024-01-30T05:39:33;102008.20;;;-1.50
69545;BMP180;56766;52.260;20.746;2024-01-30T05:41:59;102004.20;;;-1.50
69545;BMP180;56766;52.260;20.746;2024-01-30T05:44:25;102000.20;;;-1.56
69545;BMP180;56766;52.260;20.746;2024-01-30T05:46:52;102000.80;;;-1.56
69545;BMP180;56766;52.260;20.746;2024-01-30T05:49:18;101999.60;;;-1.52
69545;BMP180;56766;52.260;20.746;2024-01-30T05:51:44;101999.60;;;-1.52
69545;BMP180;56766;52.260;20.746;2024-01-30T05:54:10;101993.40;;;-1.60
69545;BMP180;56766;52.260;20.746;2024-01-30T05:56:36;102000.40;;;-1.50
69545;BMP180;56766;52.260;20.746;2024-01-30T05:59:02;101991.80;;;-1.58
69545;BMP180;56766;52.260;20.746;2024-01-30T06:01:28;101998.80;;;-1.52
69545;BMP180;56766;52.260;20.746;2024-01-30T06:03:54;101985.00;;;-1.56
69545;BMP180;56766;52.260;20.746;2024-01-30T06:06:21;101988.40;;;-1.56
69545;BMP180;56766;52.260;20.746;2024-01-30T06:08:47;101989.00;;;-1.60
69545;BMP180;56766;52.260;20.746;2024-01-30T06:11:13;101993.20;;;-1.60
69545;BMP180;56766;52.260;20.746;2024-01-30T06:13:39;101996.20;;;-1.60
69545;BMP180;56766;52.260;20.746;2024-01-30T06:16:09;101993.60;;;-1.60
69545;BMP180;56766;52.260;20.746;2024-01-30T06:18:36;101997.00;;;-1.66
69545;BMP180;56766;52.260;20.746;2024-01-30T06:21:04;101998.60;;;-1.70
69545;BMP180;56766;52.260;20.746;2024-01-30T06:23:30;102000.20;;;-1.70
69545;BMP180;56766;52.260;20.746;2024-01-30T06:25:56;102003.00;;;-1.70
69545;BMP180;56766;52.260;20.746;2024-01-30T06:28:22;102003.80;;;-1.70
69545;BMP180;56766;52.260;20.746;2024-01-30T06:30:48;102006.20;;;-1.70
69545;BMP180;56766;52.260;20.746;2024-01-30T06:33:14;102011.00;;;-1.70
69545;BMP180;56766;52.260;20.746;2024-01-30T06:35:40;102013.20;;;-1.78
69545;BMP180;56766;52.260;20.746;2024-01-30T06:38:06;102008.40;;;-1.76
69545;BMP180;56766;52.260;20.746;2024-01-30T06:40:32;102007.60;;;-1.72
69545;BMP180;56766;52.260;20.746;2024-01-30T06:42:58;102011.60;;;-1.70
69545;BMP180;56766;52.260;20.746;2024-01-30T06:45:24;102018.20;;;-1.70
69545;BMP180;56766;52.260;20.746;2024-01-30T06:47:50;102015.20;;;-1.62
69545;BMP180;56766;52.260;20.746;2024-01-30T06:50:16;102013.00;;;-1.60
69545;BMP180;56766;52.260;20.746;2024-01-30T06:52:42;102012.40;;;-1.50
69545;BMP180;56766;52.260;20.746;2024-01-30T06:55:09;102015.60;;;-1.46
69545;BMP180;56766;52.260;20.746;2024-01-30T06:57:35;102018.80;;;-1.38
69545;BMP180;56766;52.260;20.746;2024-01-30T07:00:03;102017.20;;;-1.30
69545;BMP180;56766;52.260;20.746;2024-01-30T07:02:29;102014.00;;;-1.20
69545;BMP180;56766;52.260;20.746;2024-01-30T07:04:55;102009.40;;;-1.10
69545;BMP180;56766;52.260;20.746;2024-01-30T07:07:21;102012.60;;;-1.08
69545;BMP180;56766;52.260;20.746;2024-01-30T07:09:47;102018.00;;;-1.00
69545;BMP180;56766;52.260;20.746;2024-01-30T07:12:15;102013.20;;;-0.90
69545;BMP180;56766;52.260;20.746;2024-01-30T07:14:41;102021.60;;;-0.80
69545;BMP180;56766;52.260;20.746;2024-01-30T07:17:07;102014.20;;;-0.60
69545;BMP180;56766;52.260;20.746;2024-01-30T07:19:33;102016.80;;;-0.44
69545;BMP180;56766;52.260;20.746;2024-01-30T07:22:01;102017.00;;;-0.24
69545;BMP180;56766;52.260;20.746;2024-01-30T07:24:26;102019.80;;;-0.10
69545;BMP180;56766;52.260;20.746;2024-01-30T07:26:52;102020.60;;;0.10
69545;BMP180;56766;52.260;20.746;2024-01-30T07:29:18;102028.40;;;0.20
69545;BMP180;56766;52.260;20.746;2024-01-30T07:31:44;102019.00;;;0.40
69545;BMP180;56766;52.260;20.746;2024-01-30T07:34:11;102021.00;;;0.50
69545;BMP180;56766;52.260;20.746;2024-01-30T07:36:37;102025.80;;;0.70
69545;BMP180;56766;52.260;20.746;2024-01-30T07:39:03;102019.00;;;0.80
69545;BMP180;56766;52.260;20.746;2024-01-30T07:41:29;102024.60;;;1.00
69545;BMP180;56766;52.260;20.746;2024-01-30T07:43:55;102020.80;;;1.10
69545;BMP180;56766;52.260;20.746;2024-01-30T07:46:21;102023.40;;;1.20
69545;BMP180;56766;52.260;20.746;2024-01-30T07:48:47;102012.20;;;1.30
69545;BMP180;56766;52.260;20.746;2024-01-30T07:51:14;102021.00;;;1.40
69545;BMP180;56766;52.260;20.746;2024-01-30T07:53:40;102017.60;;;1.50
69545;BMP180;56766;52.260;20.746;2024-01-30T07:56:06;102023.80;;;1.60
69545;BMP180;56766;52.260;20.746;2024-01-30T07:58:32;102016.80;;;1.70
69545;BMP180;56766;52.260;20.746;2024-01-30T08:00:58;102016.80;;;1.86
69545;BMP180;56766;52.260;20.746;2024-01-30T08:03:26;102018.40;;;2.00
69545;BMP180;56766;52.260;20.746;2024-01-30T08:05:52;102014.80;;;2.10
69545;BMP180;56766;52.260;20.746;2024-01-30T08:08:18;102013.80;;;2.22
69545;BMP180;56766;52.260;20.746;2024-01-30T08:10:44;102017.20;;;2.30
69545;BMP180;56766;52.260;20.746;2024-01-30T08:13:10;102014.60;;;2.46
69545;BMP180;56766;52.260;20.746;2024-01-30T08:15:36;102016.80;;;2.60
69545;BMP180;56766;52.260;20.746;2024-01-30T08:18:02;102020.60;;;2.80
69545;BMP180;56766;52.260;20.746;2024-01-30T08:20:28;102015.80;;;2.92
69545;BMP180;56766;52.260;20.746;2024-01-30T08:22:54;102013.80;;;3.00
69545;BMP180;56766;52.260;20.746;2024-01-30T08:25:20;102015.00;;;3.12
69545;BMP180;56766;52.260;20.746;2024-01-30T08:27:47;102005.60;;;3.28
69545;BMP180;56766;52.260;20.746;2024-01-30T08:30:14;102003.20;;;3.36
69545;BMP180;56766;52.260;20.746;2024-01-30T08:32:40;102001.60;;;3.44
69545;BMP180;56766;52.260;20.746;2024-01-30T08:35:07;102001.60;;;3.60
69545;BMP180;56766;52.260;20.746;2024-01-30T08:37:34;101999.20;;;3.70
69545;BMP180;56766;52.260;20.746;2024-01-30T08:40:00;102003.00;;;3.80
69545;BMP180;56766;52.260;20.746;2024-01-30T08:42:28;102002.60;;;3.90
69545;BMP180;56766;52.260;20.746;2024-01-30T08:44:54;102007.00;;;4.00
69545;BMP180;56766;52.260;20.746;2024-01-30T08:47:20;102005.80;;;4.10
69545;BMP180;56766;52.260;20.746;2024-01-30T08:49:46;102007.20;;;4.20
69545;BMP180;56766;52.260;20.746;2024-01-30T08:52:12;102005.00;;;4.22
69545;BMP180;56766;52.260;20.746;2024-01-30T08:54:38;102006.40;;;4.38
69545;BMP180;56766;52.260;20.746;2024-01-30T08:57:04;102007.60;;;4.40
69545;BMP180;56766;52.260;20.746;2024-01-30T08:59:31;102007.60;;;4.40
69545;BMP180;56766;52.260;20.746;2024-01-30T09:01:56;102005.40;;;4.40
69545;BMP180;56766;52.260;20.746;2024-01-30T09:04:24;102006.40;;;4.50
69545;BMP180;56766;52.260;20.746;2024-01-30T09:06:50;102004.20;;;4.50
69545;BMP180;56766;52.260;20.746;2024-01-30T09:09:17;102003.60;;;4.50
69545;BMP180;56766;52.260;20.746;2024-01-30T09:11:44;102003.80;;;4.50
69545;BMP180;56766;52.260;20.746;2024-01-30T09:14:10;102006.40;;;4.50
69545;BMP180;56766;52.260;20.746;2024-01-30T09:16:36;102001.80;;;4.60
69545;BMP180;56766;52.260;20.746;2024-01-30T09:19:02;102004.80;;;4.60
69545;BMP180;56766;52.260;20.746;2024-01-30T09:21:28;102001.60;;;4.70
69545;BMP180;56766;52.260;20.746;2024-01-30T09:24:03;101998.80;;;4.70
69545;BMP180;56766;52.260;20.746;2024-01-30T09:26:32;102004.00;;;4.72
69545;BMP180;56766;52.260;20.746;2024-01-30T09:28:58;102000.60;;;4.72
69545;BMP180;56766;52.260;20.746;2024-01-30T09:31:24;101998.00;;;4.80
69545;BMP180;56766;52.260;20.746;2024-01-30T09:33:50;101997.20;;;4.90
69545;BMP180;56766;52.260;20.746;2024-01-30T09:36:17;101995.20;;;4.90
69545;BMP180;56766;52.260;20.746;2024-01-30T09:38:45;101989.60;;;5.00
69545;BMP180;56766;52.260;20.746;2024-01-30T09:41:12;101991.20;;;5.04
69545;BMP180;56766;52.260;20.746;2024-01-30T09:43:39;101987.40;;;5.10
69545;BMP180;56766;52.260;20.746;2024-01-30T09:46:12;101988.40;;;5.18
69545;BMP180;56766;52.260;20.746;2024-01-30T09:48:41;101982.00;;;5.20
69545;BMP180;56766;52.260;20.746;2024-01-30T09:51:15;101982.80;;;5.20
69545;BMP180;56766;52.260;20.746;2024-01-30T09:53:43;101977.40;;;5.20
69545;BMP180;56766;52.260;20.746;2024-01-30T09:56:12;101982.00;;;5.28
69545;BMP180;56766;52.260;20.746;2024-01-30T09:58:39;101979.80;;;5.30
69545;BMP180;56766;52.260;20.746;2024-01-30T10:01:06;101981.60;;;5.30
69545;BMP180;56766;52.260;20.746;2024-01-30T10:03:33;101985.80;;;5.38
69545;BMP180;56766;52.260;20.746;2024-01-30T10:06:01;101977.00;;;5.40
69545;BMP180;56766;52.260;20.746;2024-01-30T10:08:28;101975.40;;;5.40
69545;BMP180;56766;52.260;20.746;2024-01-30T10:11:00;101975.20;;;5.46
69545;BMP180;56766;52.260;20.746;2024-01-30T10:13:28;101966.20;;;5.50
69545;BMP180;56766;52.260;20.746;2024-01-30T10:15:55;101961.20;;;5.60
69545;BMP180;56766;52.260;20.746;2024-01-30T10:18:23;101960.40;;;5.60
69545;BMP180;56766;52.260;20.746;2024-01-30T10:20:51;101957.40;;;5.70
69545;BMP180;56766;52.260;20.746;2024-01-30T10:23:18;101954.40;;;5.80
69545;BMP180;56766;52.260;20.746;2024-01-30T10:25:45;101955.00;;;5.90
69545;BMP180;56766;52.260;20.746;2024-01-30T10:28:12;101954.60;;;6.00
69545;BMP180;56766;52.260;20.746;2024-01-30T10:30:39;101948.00;;;6.00
69545;BMP180;56766;52.260;20.746;2024-01-30T10:33:06;101950.20;;;6.10
69545;BMP180;56766;52.260;20.746;2024-01-30T10:35:32;101938.80;;;6.10
69545;BMP180;56766;52.260;20.746;2024-01-30T10:38:00;101944.40;;;6.20
69545;BMP180;56766;52.260;20.746;2024-01-30T10:40:29;101940.20;;;6.20
69545;BMP180;56766;52.260;20.746;2024-01-30T10:42:56;101938.60;;;6.30
69545;BMP180;56766;52.260;20.746;2024-01-30T10:45:26;101944.00;;;6.36
69545;BMP180;56766;52.260;20.746;2024-01-30T10:47:55;101937.40;;;6.40
69545;BMP180;56766;52.260;20.746;2024-01-30T10:50:27;101928.40;;;6.40
69545;BMP180;56766;52.260;20.746;2024-01-30T10:52:55;101926.80;;;6.40
69545;BMP180;56766;52.260;20.746;2024-01-30T10:55:22;101927.20;;;6.40
69545;BMP180;56766;52.260;20.746;2024-01-30T10:57:50;101923.40;;;6.40
69545;BMP180;56766;52.260;20.746;2024-01-30T11:00:19;101923.00;;;6.50
69545;BMP180;56766;52.260;20.746;2024-01-30T11:02:51;101920.80;;;6.56
69545;BMP180;56766;52.260;20.746;2024-01-30T11:05:25;101917.00;;;6.60
69545;BMP180;56766;52.260;20.746;2024-01-30T11:07:53;101914.80;;;6.62
69545;BMP180;56766;52.260;20.746;2024-01-30T11:10:25;101917.20;;;6.70
69545;BMP180;56766;52.260;20.746;2024-01-30T11:12:52;101915.20;;;6.70
69545;BMP180;56766;52.260;20.746;2024-01-30T11:15:18;101911.00;;;6.80
69545;BMP180;56766;52.260;20.746;2024-01-30T11:17:52;101907.20;;;6.80
69545;BMP180;56766;52.260;20.746;2024-01-30T11:20:29;101905.00;;;6.84
69545;BMP180;56766;52.260;20.746;2024-01-30T11:23:00;101904.00;;;6.90
69545;BMP180;56766;52.260;20.746;2024-01-30T11:25:33;101900.20;;;6.90
69545;BMP180;56766;52.260;20.746;2024-01-30T11:28:00;101895.80;;;7.00
69545;BMP180;56766;52.260;20.746;2024-01-30T11:30:31;101892.20;;;7.00
69545;BMP180;56766;52.260;20.746;2024-01-30T11:33:04;101885.60;;;7.04
69545;BMP180;56766;52.260;20.746;2024-01-30T11:35:39;101890.00;;;7.10
69545;BMP180;56766;52.260;20.746;2024-01-30T11:38:10;101881.00;;;7.10
69545;BMP180;56766;52.260;20.746;2024-01-30T11:40:41;101883.00;;;7.10
69545;BMP180;56766;52.260;20.746;2024-01-30T11:43:10;101881.20;;;7.10
69545;BMP180;56766;52.260;20.746;2024-01-30T11:45:37;101879.80;;;7.10
69545;BMP180;56766;52.260;20.746;2024-01-30T11:48:06;101868.60;;;7.10
69545;BMP180;56766;52.260;20.746;2024-01-30T11:50:34;101868.40;;;7.12
69545;BMP180;56766;52.260;20.746;2024-01-30T11:53:04;101869.20;;;7.16
69545;BMP180;56766;52.260;20.746;2024-01-30T11:55:32;101862.40;;;7.10
69545;BMP180;56766;52.260;20.746;2024-01-30T11:58:00;101861.40;;;7.10
69545;BMP180;56766;52.260;20.746;2024-01-30T12:00:27;101860.00;;;7.18
69545;BMP180;56766;52.260;20.746;2024-01-30T12:02:55;101862.80;;;7.18
69545;BMP180;56766;52.260;20.746;2024-01-30T12:05:24;101863.80;;;7.20
69545;BMP180;56766;52.260;20.746;2024-01-30T12:07:53;101859.00;;;7.20
69545;BMP180;56766;52.260;20.746;2024-01-30T12:10:20;101855.40;;;7.20
69545;BMP180;56766;52.260;20.746;2024-01-30T12:12:50;101850.20;;;7.24
69545;BMP180;56766;52.260;20.746;2024-01-30T12:15:21;101855.40;;;7.30
69545;BMP180;56766;52.260;20.746;2024-01-30T12:17:52;101851.60;;;7.30
69545;BMP180;56766;52.260;20.746;2024-01-30T12:20:20;101854.80;;;7.30
69545;BMP180;56766;52.260;20.746;2024-01-30T12:22:49;101854.40;;;7.30
69545;BMP180;56766;52.260;20.746;2024-01-30T12:25:20;101848.20;;;7.30
69545;BMP180;56766;52.260;20.746;2024-01-30T12:27:49;101854.40;;;7.30
69545;BMP180;56766;52.260;20.746;2024-01-30T12:30:19;101850.60;;;7.30
69545;BMP180;56766;52.260;20.746;2024-01-30T12:32:49;101849.00;;;7.30
69545;BMP180;56766;52.260;20.746;2024-01-30T12:35:18;101849.00;;;7.38
69545;BMP180;56766;52.260;20.746;2024-01-30T12:37:48;101839.60;;;7.40
69545;BMP180;56766;52.260;20.746;2024-01-30T12:40:16;101840.20;;;7.40
69545;BMP180;56766;52.260;20.746;2024-01-30T12:42:47;101839.40;;;7.40
69545;BMP180;56766;52.260;20.746;2024-01-30T12:45:16;101840.20;;;7.32
69545;BMP180;56766;52.260;20.746;2024-01-30T12:47:52;101836.80;;;7.38
69545;BMP180;56766;52.260;20.746;2024-01-30T12:50:19;101832.00;;;7.40
69545;BMP180;56766;52.260;20.746;2024-01-30T12:52:46;101833.20;;;7.36
69545;BMP180;56766;52.260;20.746;2024-01-30T12:55:13;101828.80;;;7.40
69545;BMP180;56766;52.260;20.746;2024-01-30T12:57:39;101832.40;;;7.40
69545;BMP180;56766;52.260;20.746;2024-01-30T13:00:09;101834.00;;;7.40
69545;BMP180;56766;52.260;20.746;2024-01-30T13:02:36;101829.00;;;7.40
69545;BMP180;56766;52.260;20.746;2024-01-30T13:05:04;101826.60;;;7.40
69545;BMP180;56766;52.260;20.746;2024-01-30T13:07:31;101830.80;;;7.46
69545;BMP180;56766;52.260;20.746;2024-01-30T13:09:58;101831.40;;;7.40
69545;BMP180;56766;52.260;20.746;2024-01-30T13:12:30;101828.20;;;7.40
69545;BMP180;56766;52.260;20.746;2024-01-30T13:15:00;101830.40;;;7.50
69545;BMP180;56766;52.260;20.746;2024-01-30T13:17:28;101828.60;;;7.48
69545;BMP180;56766;52.260;20.746;2024-01-30T13:19:58;101827.40;;;7.40
69545;BMP180;56766;52.260;20.746;2024-01-30T13:22:26;101825.40;;;7.40
69545;BMP180;56766;52.260;20.746;2024-01-30T13:24:54;101824.60;;;7.40
69545;BMP180;56766;52.260;20.746;2024-01-30T13:27:22;101823.40;;;7.40
69545;BMP180;56766;52.260;20.746;2024-01-30T13:29:48;101826.00;;;7.40
69545;BMP180;56766;52.260;20.746;2024-01-30T13:32:14;101830.40;;;7.38
69545;BMP180;56766;52.260;20.746;2024-01-30T13:34:40;101826.00;;;7.30
69545;BMP180;56766;52.260;20.746;2024-01-30T13:37:06;101822.20;;;7.30
69545;BMP180;56766;52.260;20.746;2024-01-30T13:39:32;101822.00;;;7.20
69545;BMP180;56766;52.260;20.746;2024-01-30T13:41:59;101819.80;;;7.20
69545;BMP180;56766;52.260;20.746;2024-01-30T13:44:24;101818.00;;;7.10
69545;BMP180;56766;52.260;20.746;2024-01-30T13:46:51;101826.40;;;7.00